Time;durP1;ratioP1;P1;durP2;ratioP2;P2;SDS_P1;SDS_P2;PMS_P1;PMS_P2;Temp;Humidity;BMP_temperature;BMP_pressure;BME280_temperature;BME280_humidity;BME280_pressure;Samples;Min_cycle;Max_cycle;Signal;HPM_P1;HPM_P2
2023/05/09 00:01:09;;;;;;;11.88;3.70;;;;;;;-144.73;48.65;54259.91;5013448;28;20427;-68
2023/05/09 00:03:35;;;;;;;14.77;3.22;;;;;;;-144.73;48.61;54309.19;5013886;28;20048;-69
2023/05/09 00:06:03;;;;;;;8.82;3.00;;;;;;;-144.73;48.62;54305.06;5013325;28;20021;-68
2023/05/09 00:08:29;;;;;;;12.07;2.65;;;;;;;-144.73;48.77;54309.19;5013597;28;20036;-70
2023/05/09 00:10:54;;;;;;;4.78;2.38;;;;;;;-144.73;48.82;54342.03;5012951;28;20104;-68
2023/05/09 00:13:20;;;;;;;7.65;2.17;;;;;;;-144.73;49.01;54321.50;5014018;28;20036;-68
2023/05/09 00:15:45;;;;;;;7.50;2.60;;;;;;;-144.73;49.35;54305.06;5013246;28;20026;-69
2023/05/09 00:18:13;;;;;;;15.55;3.10;;;;;;;-144.73;49.11;54329.72;5013414;28;20030;-69
2023/05/09 00:20:39;;;;;;;14.35;2.90;;;;;;;-144.73;49.24;54325.59;5013328;28;20041;-69
2023/05/09 00:23:06;;;;;;;3.70;2.28;;;;;;;-144.73;49.51;54268.13;5015912;28;20559;-69
2023/05/09 00:25:32;;;;;;;5.57;2.58;;;;;;;-144.73;49.66;54325.59;5017342;28;20029;-68
2023/05/09 00:27:57;;;;;;;6.93;2.75;;;;;;;-144.73;49.85;54296.88;5016745;28;20053;-69
2023/05/09 00:30:22;;;;;;;9.23;2.42;;;;;;;-144.73;50.01;54366.66;5016809;28;20036;-71
2023/05/09 00:32:51;;;;;;;8.20;2.70;;;;;;;-144.73;50.28;54346.13;5016982;28;20030;-69
2023/05/09 00:35:16;;;;;;;7.78;2.92;;;;;;;-144.73;51.00;54294.81;5016114;28;20036;-69
2023/05/09 00:37:41;;;;;;;9.80;2.60;;;;;;;-144.73;50.95;54309.19;5017432;28;20030;-70
2023/05/09 00:40:08;;;;;;;6.00;2.58;;;;;;;-144.73;50.76;54315.34;5016905;28;20536;-69
2023/05/09 00:42:34;;;;;;;6.15;2.40;;;;;;;-144.73;50.73;54317.38;5016988;28;20101;-69
2023/05/09 00:45:00;;;;;;;10.80;2.60;;;;;;;-144.73;51.38;54333.81;5016602;28;20025;-69
2023/05/09 00:47:27;;;;;;;9.43;2.63;;;;;;;-144.73;51.70;54303.03;5017299;28;20033;-69
2023/05/09 00:49:53;;;;;;;5.70;2.97;;;;;;;-144.73;52.18;54313.28;5016617;28;20028;-69
2023/05/09 00:52:22;;;;;;;12.18;2.88;;;;;;;-144.73;51.84;54321.50;5016320;28;20477;-69
2023/05/09 00:54:49;;;;;;;13.45;3.05;;;;;;;-144.73;52.73;54327.66;5016380;28;20025;-69
2023/05/09 00:57:16;;;;;;;4.25;2.42;;;;;;;-144.73;52.83;54305.06;5016793;28;20032;-70
2023/05/09 00:59:41;;;;;;;6.18;2.83;;;;;;;-144.73;52.73;54325.59;5015950;28;20030;-70
2023/05/09 01:02:07;;;;;;;7.40;2.90;;;;;;;-144.73;52.73;54346.13;5016363;28;20041;-70
2023/05/09 01:04:32;;;;;;;3.95;2.55;;;;;;;-144.73;53.58;54300.97;5016112;28;20033;-69
2023/05/09 01:07:12;;;;;;;7.90;2.95;;;;;;;-144.73;53.88;54313.28;5016271;28;20044;-69
2023/05/09 01:10:03;;;;;;;9.77;2.97;;;;;;;-144.73;54.08;54350.22;5015851;28;20124;-69
2023/05/09 01:12:38;;;;;;;10.70;2.47;;;;;;;-144.73;54.16;54313.28;5015919;28;20067;-69
2023/05/09 01:15:20;;;;;;;4.43;2.70;;;;;;;-144.73;53.73;54313.28;5015964;28;20033;-68
2023/05/09 01:17:52;;;;;;;7.38;3.60;;;;;;;-144.73;54.52;54313.28;5016383;28;20045;-69
2023/05/09 01:20:32;;;;;;;7.93;2.78;;;;;;;-144.73;54.37;54350.22;5016391;28;20037;-68
2023/05/09 01:23:01;;;;;;;5.45;3.08;;;;;;;-144.73;55.51;54346.13;5016840;28;20063;-69
2023/05/09 01:25:47;;;;;;;13.75;3.67;;;;;;;-144.73;55.48;54309.19;5015910;28;20614;-69
2023/05/09 01:28:33;;;;;;;10.85;3.40;;;;;;;-144.73;55.87;54323.53;5016610;28;20185;-69
2023/05/09 01:30:58;;;;;;;9.50;3.25;;;;;;;-144.73;56.01;54315.34;5015225;28;20468;-69
2023/05/09 01:33:25;;;;;;;7.38;2.80;;;;;;;-144.73;56.11;54321.50;5015849;28;20021;-69
2023/05/09 01:35:58;;;;;;;14.82;3.15;;;;;;;-144.73;56.35;54305.06;5015443;28;20048;-68
2023/05/09 01:38:24;;;;;;;8.32;3.00;;;;;;;-144.73;56.28;54300.97;5016504;28;20467;-69
2023/05/09 01:40:53;;;;;;;11.98;3.47;;;;;;;-144.73;56.60;54317.38;5016509;28;20017;-69
2023/05/09 01:43:22;;;;;;;11.77;4.15;;;;;;;-144.73;57.27;54309.19;5016398;28;20116;-68
2023/05/09 01:45:50;;;;;;;10.27;2.92;;;;;;;-144.73;57.53;54321.50;5015401;28;20068;-69
2023/05/09 01:48:16;;;;;;;5.70;3.33;;;;;;;-144.73;57.72;54333.81;5016275;28;20067;-69
2023/05/09 01:50:43;;;;;;;5.72;3.00;;;;;;;-144.73;57.65;54296.88;5016092;28;20109;-68
2023/05/09 01:53:10;;;;;;;12.57;3.13;;;;;;;-144.73;58.03;54309.19;5015789;28;20033;-68
2023/05/09 01:55:36;;;;;;;9.77;3.10;;;;;;;-144.73;58.65;54305.06;5015208;28;20022;-69
2023/05/09 01:58:04;;;;;;;13.93;3.70;;;;;;;-144.73;59.33;54296.88;5015770;28;20507;-69
2023/05/09 02:00:32;;;;;;;7.53;2.92;;;;;;;-144.73;60.04;54309.19;5015281;28;20377;-69
2023/05/09 02:02:58;;;;;;;10.27;3.45;;;;;;;-144.73;60.88;54300.97;5015012;28;20112;-69
2023/05/09 02:05:27;;;;;;;7.15;2.58;;;;;;;-144.73;61.32;54329.72;5015643;28;20071;-68
2023/05/09 02:07:56;;;;;;;10.25;3.10;;;;;;;-144.73;61.42;54329.72;5015244;28;20033;-69
2023/05/09 02:10:24;;;;;;;8.27;3.60;;;;;;;-144.73;61.85;54321.50;5015372;28;20036;-68
2023/05/09 02:12:50;;;;;;;5.78;2.92;;;;;;;-144.73;62.47;54284.56;5015931;28;20113;-68
2023/05/09 02:15:15;;;;;;;10.60;2.70;;;;;;;-144.73;62.46;54325.59;5016112;28;20381;-68
2023/05/09 02:17:41;;;;;;;5.38;3.40;;;;;;;-144.73;63.61;54325.59;5015915;28;20092;-69
2023/05/09 02:20:08;;;;;;;10.50;3.63;;;;;;;-144.73;63.71;54305.06;5015565;28;20032;-69
2023/05/09 02:22:35;;;;;;;11.23;3.40;;;;;;;-144.73;62.85;54325.59;5015047;28;20057;-69
2023/05/09 02:25:03;;;;;;;5.25;3.10;;;;;;;-144.73;63.49;54325.59;5015528;28;20025;-69
2023/05/09 02:27:30;;;;;;;15.93;4.20;;;;;;;-144.73;64.51;54317.38;5015085;28;20040;-69
2023/05/09 02:30:00;;;;;;;8.77;3.20;;;;;;;-144.73;64.66;54303.03;5015236;28;20057;-68
2023/05/09 02:32:29;;;;;;;6.80;3.63;;;;;;;-144.73;65.50;54313.28;5015499;28;20113;-69
2023/05/09 02:34:57;;;;;;;11.15;3.50;;;;;;;-144.73;65.86;54305.06;5015096;28;20130;-69
2023/05/09 02:37:24;;;;;;;6.95;3.60;;;;;;;-144.73;65.78;54284.56;5015628;28;20037;-69
2023/05/09 02:39:49;;;;;;;15.38;4.35;;;;;;;-144.73;66.14;54321.50;5014983;28;20025;-69
2023/05/09 02:42:27;;;;;;;7.63;3.72;;;;;;;-144.73;65.91;54329.72;5015578;28;20040;-70
2023/05/09 02:44:53;;;;;;;8.10;3.85;;;;;;;-144.73;66.76;54313.28;5015062;28;20043;-69
2023/05/09 02:47:19;;;;;;;15.00;4.03;;;;;;;-144.73;66.59;54321.50;5015468;28;20093;-70
2023/05/09 02:49:45;;;;;;;8.82;3.45;;;;;;;-144.73;67.59;54298.91;5014446;28;20021;-70
2023/05/09 02:52:11;;;;;;;9.95;3.85;;;;;;;-144.73;66.63;54305.06;5014923;28;20044;-70
2023/05/09 02:54:37;;;;;;;6.38;3.67;;;;;;;-144.73;66.84;54300.97;5014967;28;20033;-69
2023/05/09 02:57:02;;;;;;;7.88;4.18;;;;;;;-144.73;67.17;54325.59;5015132;28;20033;-69
2023/05/09 02:59:28;;;;;;;8.00;3.67;;;;;;;-144.73;68.49;54317.38;5014714;28;20032;-69
2023/05/09 03:01:53;;;;;;;7.53;4.20;;;;;;;-144.73;69.23;54321.50;5013893;28;20109;-69
2023/05/09 03:04:18;;;;;;;8.35;3.38;;;;;;;-144.73;69.25;54329.72;5014599;28;20026;-70
2023/05/09 03:06:44;;;;;;;8.15;3.95;;;;;;;-144.73;69.44;54309.19;5008755;28;20087;-69
2023/05/09 03:09:10;;;;;;;9.35;3.78;;;;;;;-144.73;71.48;54303.03;4994815;28;20465;-70
2023/05/09 03:11:35;;;;;;;9.93;3.83;;;;;;;-144.73;71.47;54325.59;4995180;28;20070;-70
2023/05/09 03:14:02;;;;;;;9.27;3.92;;;;;;;-144.73;70.97;54309.19;5014203;28;20079;-69
2023/05/09 03:16:27;;;;;;;10.63;4.85;;;;;;;-144.73;70.65;54317.38;5014642;28;20033;-70
2023/05/09 03:18:53;;;;;;;17.15;4.30;;;;;;;-144.73;71.54;54313.28;5014632;28;20131;-69
2023/05/09 03:21:18;;;;;;;11.20;4.07;;;;;;;-144.73;71.48;54325.59;5014394;28;20056;-69
2023/05/09 03:23:43;;;;;;;6.80;3.75;;;;;;;-144.73;72.13;54288.66;5014905;28;20021;-70
2023/05/09 03:26:09;;;;;;;15.35;4.35;;;;;;;-144.73;72.63;54290.72;5014240;28;20040;-70
2023/05/09 03:28:34;;;;;;;10.93;4.35;;;;;;;-144.73;72.37;54288.66;5015444;28;20083;-70
2023/05/09 03:31:00;;;;;;;14.93;4.60;;;;;;;-144.73;72.02;54317.38;5014131;28;20079;-69
2023/05/09 03:33:25;;;;;;;6.05;4.00;;;;;;;-144.73;72.94;54342.03;5014213;28;20024;-69
2023/05/09 03:35:51;;;;;;;11.90;4.70;;;;;;;-144.73;73.41;54317.38;5014305;28;20384;-69
2023/05/09 03:38:16;;;;;;;8.70;3.90;;;;;;;-144.73;73.00;54342.03;5015192;28;20017;-67
2023/05/09 03:40:41;;;;;;;12.85;4.97;;;;;;;-144.73;73.57;54300.97;5014521;28;20030;-69
2023/05/09 03:43:07;;;;;;;11.88;4.70;;;;;;;-144.73;73.90;54321.50;5014789;28;20089;-69
2023/05/09 03:45:34;;;;;;;8.13;4.88;;;;;;;-144.73;74.92;54329.72;5014718;28;20021;-69
2023/05/09 03:48:00;;;;;;;11.00;5.13;;;;;;;-144.73;76.58;54337.91;5015139;28;20041;-69
2023/05/09 03:50:25;;;;;;;8.88;4.55;;;;;;;-144.73;77.66;54292.75;5014304;28;20018;-69
2023/05/09 03:52:51;;;;;;;10.60;4.60;;;;;;;-144.73;77.80;54313.28;5005296;28;20037;-69
2023/05/09 03:55:16;;;;;;;15.18;4.80;;;;;;;-144.73;77.49;54323.53;4994302;28;20076;-69
2023/05/09 03:57:41;;;;;;;14.52;4.47;;;;;;;-144.73;77.47;54342.03;4996809;28;20030;-69
2023/05/09 04:00:09;;;;;;;9.75;5.00;;;;;;;-144.73;76.89;54346.13;4998397;28;20045;-68
2023/05/09 04:02:34;;;;;;;9.27;5.10;;;;;;;-144.73;78.09;54313.28;4999290;28;20038;-69
2023/05/09 04:05:00;;;;;;;12.80;4.47;;;;;;;-144.73;78.39;54333.81;4998620;28;20022;-68
2023/05/09 04:07:27;;;;;;;12.30;4.75;;;;;;;-144.73;78.77;54300.97;4998974;28;20112;-69
2023/05/09 04:09:54;;;;;;;10.23;5.18;;;;;;;-144.73;77.78;54292.75;5001498;28;20029;-70
2023/05/09 04:12:20;;;;;;;12.90;4.88;;;;;;;-144.73;77.89;54327.66;4999686;28;20037;-70
2023/05/09 04:14:45;;;;;;;19.35;5.28;;;;;;;-144.73;78.31;54333.81;4996872;28;20378;-69
2023/05/09 04:17:11;;;;;;;10.45;4.47;;;;;;;-144.73;77.75;54300.97;5007413;28;20053;-69
2023/05/09 04:19:36;;;;;;;7.93;4.82;;;;;;;-144.73;77.94;54288.66;5006553;28;20104;-69
2023/05/09 04:22:01;;;;;;;8.52;4.80;;;;;;;-144.73;78.14;54300.97;5003776;28;20500;-69
2023/05/09 04:24:26;;;;;;;11.43;5.25;;;;;;;-144.73;78.59;54317.38;5009913;28;20013;-69
2023/05/09 04:26:52;;;;;;;9.80;5.10;;;;;;;-144.73;77.44;54335.88;5003636;28;20041;-69
2023/05/09 04:29:17;;;;;;;16.63;4.90;;;;;;;-144.73;79.04;54329.72;5008988;28;20021;-69
2023/05/09 04:31:43;;;;;;;14.38;5.55;;;;;;;-144.73;78.88;54342.03;5007580;28;20034;-69
2023/05/09 04:34:08;;;;;;;8.02;5.28;;;;;;;-144.73;78.78;54321.50;5018887;28;20028;-70
2023/05/09 04:36:33;;;;;;;12.18;4.80;;;;;;;-144.73;79.23;54337.91;5009204;28;20029;-69
2023/05/09 04:38:59;;;;;;;12.00;5.60;;;;;;;-144.73;78.56;54407.69;5005881;28;20392;-69
2023/05/09 04:41:24;;;;;;;12.95;5.22;;;;;;;-144.73;79.59;54327.66;5006977;28;20025;-69
2023/05/09 04:43:51;;;;;;;10.15;5.40;;;;;;;-144.73;78.82;54317.38;5009281;28;20071;-69
2023/05/09 04:46:16;;;;;;;13.10;5.22;;;;;;;-144.73;77.99;54342.03;5003564;28;20029;-69
2023/05/09 04:48:42;;;;;;;12.13;4.93;;;;;;;-144.73;78.75;54300.97;5007546;28;20024;-69
2023/05/09 04:51:07;;;;;;;11.35;4.60;;;;;;;-144.73;78.40;54370.75;5003673;28;20072;-69
2023/05/09 04:53:33;;;;;;;9.60;5.55;;;;;;;-144.73;78.94;54325.59;5008207;28;20112;-69
2023/05/09 04:55:59;;;;;;;12.27;5.10;;;;;;;-144.73;78.53;54317.38;5006935;28;20100;-69
2023/05/09 04:58:25;;;;;;;10.57;5.03;;;;;;;-144.73;77.58;54276.34;5001722;28;20029;-69
2023/05/09 05:00:51;;;;;;;9.95;5.32;;;;;;;-144.73;78.43;54307.13;5000587;28;20650;-70
2023/05/09 05:03:17;;;;;;;14.77;5.22;;;;;;;-144.73;77.84;54331.75;5009776;28;20017;-71
2023/05/09 05:05:42;;;;;;;10.20;5.00;;;;;;;-144.73;78.73;54305.06;5000405;28;20028;-71
2023/05/09 05:08:08;;;;;;;11.38;5.35;;;;;;;-144.73;77.91;54309.19;5009735;28;20425;-71
2023/05/09 05:10:33;;;;;;;9.93;5.45;;;;;;;-144.73;76.93;54313.28;5006933;28;20124;-71
2023/05/09 05:12:58;;;;;;;8.65;4.95;;;;;;;-144.73;76.37;54333.81;5002795;28;20037;-71
2023/05/09 05:15:25;;;;;;;11.40;5.00;;;;;;;-144.73;76.92;54321.50;5002855;28;20053;-71
2023/05/09 05:17:51;;;;;;;10.10;5.38;;;;;;;-144.73;76.85;54346.13;5009823;28;20045;-69
2023/05/09 05:20:16;;;;;;;11.13;5.25;;;;;;;-144.73;75.86;54333.81;5006394;28;20022;-70
2023/05/09 05:22:42;;;;;;;9.23;5.15;;;;;;;-144.73;76.43;54321.50;5006686;28;20022;-70
2023/05/09 05:25:07;;;;;;;11.63;5.13;;;;;;;-144.73;76.06;54335.88;5004470;28;20123;-70
2023/05/09 05:27:33;;;;;;;10.48;5.53;;;;;;;-144.73;76.35;54346.13;5008786;28;20151;-70
2023/05/09 05:30:01;;;;;;;10.68;5.32;;;;;;;-144.73;76.17;54305.06;5006416;28;20393;-70
2023/05/09 05:32:26;;;;;;;9.90;5.00;;;;;;;-144.73;75.52;54331.75;5006229;28;20029;-70
2023/05/09 05:34:52;;;;;;;12.32;5.32;;;;;;;-144.73;75.48;54321.50;5023853;28;20036;-70
2023/05/09 05:37:17;;;;;;;17.13;5.47;;;;;;;-144.73;75.64;54323.53;5005909;28;20036;-70
2023/05/09 05:39:43;;;;;;;13.73;4.88;;;;;;;-144.73;75.07;54329.72;5010415;28;20028;-70
2023/05/09 05:42:09;;;;;;;12.00;5.30;;;;;;;-144.73;74.64;54305.06;5006156;28;20029;-70
2023/05/09 05:44:37;;;;;;;13.35;5.68;;;;;;;-144.73;74.27;54342.03;5003243;28;20041;-71
2023/05/09 05:47:03;;;;;;;20.15;5.32;;;;;;;-144.73;74.31;54307.13;5021091;28;20056;-71
2023/05/09 05:49:28;;;;;;;11.40;5.35;;;;;;;-144.73;73.67;54282.50;5000742;28;20029;-68
2023/05/09 05:51:53;;;;;;;10.88;4.90;;;;;;;-144.73;73.63;54300.97;5000827;28;20041;-71
2023/05/09 05:54:18;;;;;;;16.92;5.10;;;;;;;-144.73;73.42;54333.81;5007776;28;20022;-71
2023/05/09 05:56:44;;;;;;;9.85;4.95;;;;;;;-144.73;72.93;54317.38;5003586;28;20041;-71
2023/05/09 05:59:09;;;;;;;11.10;5.50;;;;;;;-144.73;73.26;54317.38;5009915;28;20033;-71
2023/05/09 06:01:34;;;;;;;9.85;4.60;;;;;;;-144.73;72.15;54313.28;5022717;28;20041;-71
2023/05/09 06:04:00;;;;;;;11.27;5.07;;;;;;;-144.73;71.96;54303.03;5021301;28;20018;-69
2023/05/09 06:06:25;;;;;;;14.25;5.07;;;;;;;-144.73;71.56;54350.22;5017713;28;20030;-69
2023/05/09 06:08:51;;;;;;;12.65;5.40;;;;;;;-144.73;70.68;54339.97;5007999;28;20029;-69
2023/05/09 06:11:17;;;;;;;9.57;5.65;;;;;;;-144.73;70.86;54325.59;5023979;28;20026;-70
2023/05/09 06:13:43;;;;;;;19.00;4.63;;;;;;;-144.73;71.35;54284.56;5008101;28;20022;-69
2023/05/09 06:16:08;;;;;;;11.32;5.85;;;;;;;-144.73;71.22;54315.34;5023971;28;20033;-69
2023/05/09 06:18:36;;;;;;;9.75;5.43;;;;;;;-144.73;71.04;54268.13;5005943;28;20032;-70
2023/05/09 06:21:02;;;;;;;20.10;5.47;;;;;;;-144.73;69.92;54366.66;5006183;28;20034;-70
2023/05/09 06:23:27;;;;;;;16.77;6.00;;;;;;;-144.73;69.16;54280.44;5023430;28;20035;-70
2023/05/09 06:25:53;;;;;;;7.60;4.93;;;;;;;-144.73;68.82;54290.72;5010758;28;20026;-70
2023/05/09 06:28:18;;;;;;;17.42;5.43;;;;;;;-144.73;68.10;54321.50;5023699;28;20018;-70
2023/05/09 06:30:43;;;;;;;23.70;5.53;;;;;;;-144.73;66.80;54284.56;5006548;28;20431;-70
2023/05/09 06:33:09;;;;;;;12.68;5.65;;;;;;;-144.73;67.15;54321.50;5023540;28;20041;-70
2023/05/09 06:35:34;;;;;;;9.38;4.50;;;;;;;-144.73;68.75;54294.81;5004496;28;20037;-70
2023/05/09 06:37:59;;;;;;;8.25;4.82;;;;;;;-144.73;68.44;54296.88;5005077;28;20048;-69
2023/05/09 06:40:25;;;;;;;12.50;5.00;;;;;;;-144.73;69.52;54313.28;5001907;28;20443;-70
2023/05/09 06:42:50;;;;;;;14.27;5.13;;;;;;;-144.73;69.85;54329.72;5005493;28;20045;-69
2023/05/09 06:45:15;;;;;;;7.30;4.80;;;;;;;-144.73;69.63;54329.72;5000030;28;20033;-71
2023/05/09 06:47:41;;;;;;;7.90;4.72;;;;;;;-144.73;69.60;54327.66;5007442;28;20068;-70
2023/05/09 06:50:07;;;;;;;20.77;5.65;;;;;;;-144.73;69.62;54317.38;5003004;28;20029;-70
2023/05/09 06:52:32;;;;;;;7.15;5.10;;;;;;;-144.73;68.46;54292.75;5023690;28;20029;-71
2023/05/09 06:54:57;;;;;;;11.68;5.20;;;;;;;-144.73;68.24;54284.56;5005252;28;20037;-72
2023/05/09 06:57:23;;;;;;;38.28;6.95;;;;;;;-144.73;67.46;54296.88;5013859;28;20034;-73
2023/05/09 06:59:48;;;;;;;9.60;4.90;;;;;;;-144.73;67.59;54288.66;5024775;28;20089;-70
2023/05/09 07:02:13;;;;;;;10.00;5.07;;;;;;;-144.73;67.42;54317.38;5025720;28;20038;-72
2023/05/09 07:04:39;;;;;;;15.73;5.80;;;;;;;-144.73;67.84;54333.81;5023763;28;20029;-72
2023/05/09 07:07:04;;;;;;;8.45;5.32;;;;;;;-144.73;66.93;54296.88;5018686;28;20038;-72
2023/05/09 07:09:30;;;;;;;19.08;5.18;;;;;;;-144.73;66.49;54259.91;5022496;28;20029;-72
2023/05/09 07:11:55;;;;;;;7.95;5.10;;;;;;;-144.73;66.23;54305.06;5002499;28;20113;-72
2023/05/09 07:14:20;;;;;;;9.85;4.57;;;;;;;-144.73;65.39;54296.88;5025633;28;20022;-70
2023/05/09 07:16:46;;;;;;;10.75;4.50;;;;;;;-144.73;64.43;54317.38;5004425;28;20038;-71
2023/05/09 07:19:11;;;;;;;11.85;4.93;;;;;;;-144.73;64.58;54284.56;5007358;28;20022;-71
2023/05/09 07:21:36;;;;;;;16.33;4.97;;;;;;;-144.73;64.62;54305.06;4998120;28;20045;-71
2023/05/09 07:24:02;;;;;;;7.68;4.30;;;;;;;-144.73;64.33;54325.59;5006816;28;20022;-71
2023/05/09 07:26:28;;;;;;;11.13;4.82;;;;;;;-144.73;63.95;54300.97;5004840;28;20060;-71
2023/05/09 07:28:53;;;;;;;15.88;4.60;;;;;;;-144.73;62.31;54259.91;5001141;28;20021;-71
2023/05/09 07:31:18;;;;;;;13.93;5.75;;;;;;;-144.73;61.58;54255.81;5005462;28;20030;-71
2023/05/09 07:33:44;;;;;;;9.05;4.47;;;;;;;-144.73;60.91;54342.03;5019953;28;20032;-71
2023/05/09 07:36:12;;;;;;;15.50;4.45;;;;;;;-144.73;60.29;54243.50;5008698;28;20034;-71
2023/05/09 07:38:38;;;;;;;17.48;4.45;;;;;;;-144.73;59.44;54296.88;5007600;28;20088;-70
2023/05/09 07:41:04;;;;;;;11.07;5.13;;;;;;;-144.73;58.64;54292.75;5015953;28;20094;-71
2023/05/09 07:43:29;;;;;;;12.15;5.20;;;;;;;-144.73;58.61;54231.19;4997139;28;20033;-72
2023/05/09 07:45:54;;;;;;;17.75;4.80;;;;;;;-144.73;58.62;54284.56;4995770;28;20018;-71
2023/05/09 07:48:20;;;;;;;22.88;5.00;;;;;;;-144.73;57.15;54237.34;4994504;28;20033;-72
2023/05/09 07:50:45;;;;;;;11.18;4.65;;;;;;;-144.73;57.00;54276.34;5003527;28;20029;-71
2023/05/09 07:53:10;;;;;;;14.77;4.70;;;;;;;-144.73;56.74;54231.19;4998774;28;20056;-73
2023/05/09 07:55:36;;;;;;;10.77;3.90;;;;;;;-144.73;55.79;54280.44;5015999;28;20239;-72
2023/05/09 07:58:01;;;;;;;7.85;4.30;;;;;;;-144.73;55.32;54247.59;5003646;28;20064;-71
2023/05/09 08:00:27;;;;;;;18.60;4.35;;;;;;;-144.73;54.81;54276.34;5002905;28;20021;-71
2023/05/09 08:02:52;;;;;;;8.32;3.70;;;;;;;-144.73;54.48;54255.81;4995015;28;20041;-72
2023/05/09 08:05:18;;;;;;;14.50;4.53;;;;;;;-144.73;52.52;54276.34;5003059;28;20101;-71
2023/05/09 08:07:45;;;;;;;9.43;4.55;;;;;;;-144.73;51.86;54247.59;5002207;28;20052;-71
2023/05/09 08:10:10;;;;;;;8.18;3.70;;;;;;;-144.73;51.17;54229.13;5020764;28;20403;-72
2023/05/09 08:12:36;;;;;;;10.23;3.78;;;;;;;-144.73;50.63;54342.03;5017692;28;20049;-72
2023/05/09 08:15:02;;;;;;;9.75;4.10;;;;;;;-144.73;51.41;54239.41;4996567;28;20033;-71
2023/05/09 08:17:27;;;;;;;6.18;3.63;;;;;;;-144.73;50.50;54231.19;5001656;28;20049;-71
2023/05/09 08:19:52;;;;;;;7.03;4.20;;;;;;;-144.73;50.47;54239.41;5000989;28;20117;-72
2023/05/09 08:22:19;;;;;;;12.55;4.07;;;;;;;-144.73;49.82;54251.72;5001531;28;20058;-71
2023/05/09 08:24:45;;;;;;;10.85;3.35;;;;;;;-144.73;49.75;54251.72;5020077;28;20029;-72
2023/05/09 08:27:12;;;;;;;14.50;4.22;;;;;;;-144.73;49.26;54251.72;5020500;28;20484;-72
2023/05/09 08:29:42;;;;;;;7.35;4.05;;;;;;;-144.73;48.96;54249.66;5022302;28;20047;-72
2023/05/09 08:32:08;;;;;;;11.75;3.90;;;;;;;-144.73;49.03;54247.59;5021203;28;20064;-71
2023/05/09 08:34:34;;;;;;;7.18;3.45;;;;;;;-144.73;48.87;54245.56;5016684;28;20056;-71
2023/05/09 08:37:00;;;;;;;15.63;4.13;;;;;;;-144.73;47.62;54247.59;5001821;28;20030;-71
2023/05/09 08:39:26;;;;;;;17.30;3.47;;;;;;;-144.73;47.32;54214.78;4998585;28;20040;-72
2023/05/09 08:41:56;;;;;;;17.98;4.13;;;;;;;-144.73;47.25;54288.66;5019366;28;20125;-72
2023/05/09 08:44:22;;;;;;;12.00;3.53;;;;;;;-144.73;47.24;54239.41;5008649;28;20026;-72
2023/05/09 08:46:50;;;;;;;14.13;4.10;;;;;;;-144.73;47.72;54255.81;5002759;28;20039;-71
2023/05/09 08:49:16;;;;;;;16.65;3.97;;;;;;;-144.73;46.72;54264.03;5006542;28;20100;-70
2023/05/09 08:51:42;;;;;;;9.60;3.78;;;;;;;-144.73;45.34;54239.41;5006101;28;20453;-71
2023/05/09 08:54:09;;;;;;;17.58;3.45;;;;;;;-144.73;44.63;54227.09;5022406;28;20025;-70
2023/05/09 08:56:35;;;;;;;12.27;3.40;;;;;;;-144.73;45.24;54222.97;5010233;28;20028;-71
2023/05/09 08:59:00;;;;;;;7.47;3.03;;;;;;;-144.73;44.71;54231.19;5008760;28;20021;-72
2023/05/09 09:01:26;;;;;;;10.23;3.22;;;;;;;-144.73;44.18;54235.28;5009349;28;20037;-71
2023/05/09 09:03:52;;;;;;;11.25;3.78;;;;;;;-144.73;44.21;54251.72;5026779;28;20037;-71
2023/05/09 09:06:20;;;;;;;8.40;3.30;;;;;;;-144.73;43.88;54253.75;5009592;28;20034;-72
2023/05/09 09:08:47;;;;;;;40.25;5.25;;;;;;;-144.73;43.08;54239.41;5004238;28;20072;-72
2023/05/09 09:11:14;;;;;;;9.00;4.03;;;;;;;-144.73;42.08;54206.56;5010926;28;20030;-72
2023/05/09 09:13:40;;;;;;;17.98;4.05;;;;;;;-144.73;42.79;54222.97;5028933;28;20032;-72
2023/05/09 09:16:13;;;;;;;10.07;3.85;;;;;;;-144.73;42.97;54247.59;5008999;28;20030;-72
2023/05/09 09:18:38;;;;;;;10.05;3.38;;;;;;;-144.73;43.19;54268.13;5009812;28;20484;-72
2023/05/09 09:21:11;;;;;;;9.25;3.60;;;;;;;-144.73;41.73;54231.19;5025344;28;20064;-72
2023/05/09 09:23:38;;;;;;;11.23;3.50;;;;;;;-144.73;41.53;54210.66;5005614;28;20047;-72
2023/05/09 09:26:04;;;;;;;17.80;3.65;;;;;;;-144.73;41.48;54235.28;5007621;28;20025;-72
2023/05/09 09:28:29;;;;;;;11.38;3.83;;;;;;;-144.73;40.88;54220.94;5012863;28;20041;-72
2023/05/09 09:30:55;;;;;;;14.60;3.42;;;;;;;-144.73;40.94;54210.66;5008687;28;20091;-72
2023/05/09 09:33:22;;;;;;;14.73;3.80;;;;;;;-144.73;41.06;54181.94;5028418;28;20536;-72
2023/05/09 09:35:49;;;;;;;10.88;4.03;;;;;;;-144.73;41.13;54247.59;5024851;28;20048;-72
2023/05/09 09:38:17;;;;;;;10.25;3.55;;;;;;;-144.73;40.83;54220.94;5008403;28;20045;-72
2023/05/09 09:40:53;;;;;;;18.85;3.83;;;;;;;-144.73;40.41;54186.03;5006963;28;20060;-71
2023/05/09 09:43:19;;;;;;;19.98;3.92;;;;;;;-144.73;40.06;54206.56;5012090;28;20038;-71
2023/05/09 09:45:49;;;;;;;18.25;3.45;;;;;;;-144.73;39.87;54194.25;5025525;28;20025;-71
2023/05/09 09:48:15;;;;;;;7.68;2.90;;;;;;;-144.73;39.61;54239.41;5011909;28;20033;-71
2023/05/09 09:50:40;;;;;;;11.93;3.30;;;;;;;-144.73;39.23;54214.78;5012092;28;20025;-71
2023/05/09 09:53:06;;;;;;;12.13;3.42;;;;;;;-144.73;38.57;54198.34;5022824;28;20753;-71
2023/05/09 09:55:33;;;;;;;7.40;3.85;;;;;;;-144.73;38.95;54227.09;5002379;28;20021;-71
2023/05/09 09:57:59;;;;;;;7.93;2.92;;;;;;;-144.73;38.88;54227.09;5025696;28;20046;-71
2023/05/09 10:00:26;;;;;;;8.27;3.03;;;;;;;-144.73;38.19;54227.09;5003245;28;20057;-70
2023/05/09 10:02:54;;;;;;;6.78;2.85;;;;;;;-144.73;38.21;54235.28;5005622;28;20045;-72
2023/05/09 10:05:23;;;;;;;8.65;3.03;;;;;;;-144.73;38.12;54231.19;5019658;28;20013;-72
2023/05/09 10:07:51;;;;;;;4.95;3.10;;;;;;;-144.73;38.71;54342.03;5004201;28;20030;-71
2023/05/09 10:10:17;;;;;;;13.02;3.50;;;;;;;-144.73;37.50;54202.44;5006437;28;20021;-72
2023/05/09 10:12:43;;;;;;;11.63;3.33;;;;;;;-144.73;36.87;54214.78;5006056;28;20033;-72
2023/05/09 10:15:11;;;;;;;16.40;3.38;;;;;;;-144.73;37.23;54181.94;5004198;28;20025;-71
2023/05/09 10:17:36;;;;;;;16.90;3.40;;;;;;;-144.73;37.05;54247.59;5005411;28;20022;-72
2023/05/09 10:20:04;;;;;;;5.60;2.45;;;;;;;-144.73;36.64;54216.81;5008047;28;20025;-71
2023/05/09 10:22:32;;;;;;;10.52;3.25;;;;;;;-144.73;36.18;54196.28;5008107;28;20036;-72
2023/05/09 10:25:03;;;;;;;11.40;3.00;;;;;;;-144.73;36.58;54231.19;5023940;28;20017;-72
2023/05/09 10:27:34;;;;;;;9.00;3.10;;;;;;;-144.73;36.09;54243.50;5004873;28;20049;-72
2023/05/09 10:30:09;;;;;;;8.40;3.70;;;;;;;-144.73;35.45;54218.88;5009146;28;20037;-72
2023/05/09 10:32:46;;;;;;;19.88;3.20;;;;;;;-144.73;35.00;54173.72;5021748;28;20039;-72
2023/05/09 10:35:12;;;;;;;19.90;3.50;;;;;;;-144.73;35.03;54222.97;5004642;28;20048;-72
2023/05/09 10:37:39;;;;;;;18.35;3.00;;;;;;;-144.73;35.45;54177.81;5004551;28;20037;-72
2023/05/09 10:40:05;;;;;;;5.07;2.67;;;;;;;-144.73;34.83;54177.81;4996961;28;20175;-73
2023/05/09 10:42:31;;;;;;;17.27;4.00;;;;;;;-144.73;34.55;54222.97;4999712;28;20138;-72
2023/05/09 10:44:57;;;;;;;47.85;5.60;;;;;;;-144.73;34.46;54194.25;5026774;28;20084;-72
2023/05/09 10:47:26;;;;;;;23.17;3.45;;;;;;;-144.73;33.83;54218.88;5013366;28;20047;-72
2023/05/09 10:49:53;;;;;;;9.80;2.95;;;;;;;-144.73;33.99;54173.72;5024238;28;20038;-71
2023/05/09 10:52:21;;;;;;;11.10;2.90;;;;;;;-144.73;33.18;54198.34;5024809;28;20060;-72
2023/05/09 10:54:58;;;;;;;9.90;2.85;;;;;;;-144.73;33.44;54251.72;5000923;28;20547;-72
2023/05/09 10:57:23;;;;;;;5.57;2.67;;;;;;;-144.73;33.67;54181.94;5004791;28;20081;-72
2023/05/09 10:59:50;;;;;;;16.15;2.92;;;;;;;-144.73;34.12;54214.78;5004916;28;20100;-72
2023/05/09 11:02:19;;;;;;;13.73;2.70;;;;;;;-144.73;34.31;54198.34;5004968;28;20033;-72
2023/05/09 11:04:45;;;;;;;12.55;3.70;;;;;;;-144.73;33.38;54183.97;5020760;28;20014;-72
2023/05/09 11:07:25;;;;;;;260.27;23.27;;;;;;;-144.73;33.13;54218.88;4997814;28;20044;-71
2023/05/09 11:10:07;;;;;;;7.47;2.55;;;;;;;-144.73;32.69;54210.66;5005995;28;20043;-71